Pagina principale
METAR-TAF:

METAR-TAF

Aeroporti :

Base aerea di Aviano

Aviano, Italia

latitudine: 46-02N, longitudine: 012-36E, altezza: 128 m

Osservazione

Il bollettino è stato emesso 20 minuti fa, alle 09:55 UTC
Vento 5 kt da est/nord-est
Temperature 19°C
Umidità 73%
Pressione 1019 hPa
Visibilità 10 km o più
Nubi sparse ad un'altezza di 4500 ft
Nuvoloso ad un'altezza di 5500 ft

METAR: LIPA 170955Z 06005KT 9999 SCT045 BKN055 19/14 Q1019 RMK BKN VIS MIN 9999 WIND THR05 /////KT WIND THR23 /////KT A3012 BLU

Ora: 12:15 (10:15 UTC)

Previsione

Il bollettino è stato emesso 2 ore e 15 minuti fa, alle 08:00 UTC
Previsione valida dal 17 alle 09 UTC al 17 alle 18 UTC
Vento 5 kt da direzioni variabili
Visibilità 10 km o più
Nubi sparse ad un'altezza di 4000 ft
Nuvoloso ad un'altezza di 6000 ft
Temporaneamente
dal 17 alle 09 UTC al 17 alle 12 UTC
Visibilità: 5000 m
pioggia

TAF: LIPA 170800Z 1709/1718 VRB05KT 9999 SCT040 BKN060 TEMPO 1709/1712 5000 RA

Osservazioni e previsioni meteorologiche di più di 4000 aeroporti (messaggi METAR e TAF).

Le stazioni disponibili sono rappresentate dai dischi gialli e rossi sulla carta.

Puntare il mouse per vedere il nome della stazione.

Clicca sopra per visualizzare le osservazioni e previsioni meteorologiche.

Per cambiare la mappa : fare clic sui pulsanti verdi con una croce nera per ingrandire, il pulsante verde con un trattino per diminuire, o sulla freccia verde per le mappe adiacenti.


METAR-TAF: